sensor_id;sensor_type;location;lat;lon;timestamp;P1;durP1;ratioP1;P2;durP2;ratioP2
39890;SDS011;25564;53.312;9.790;2022-08-16T00:01:32;16.85;;;12.13;;
39890;SDS011;25564;53.312;9.790;2022-08-16T00:04:11;16.05;;;10.70;;
39890;SDS011;25564;53.312;9.790;2022-08-16T00:06:42;16.95;;;11.52;;
39890;SDS011;25564;53.312;9.790;2022-08-16T00:09:14;19.88;;;12.88;;
39890;SDS011;25564;53.312;9.790;2022-08-16T00:11:47;16.85;;;11.45;;
39890;SDS011;25564;53.312;9.790;2022-08-16T00:14:28;18.75;;;11.73;;
39890;SDS011;25564;53.312;9.790;2022-08-16T00:17:01;16.33;;;11.90;;
39890;SDS011;25564;53.312;9.790;2022-08-16T00:19:49;18.42;;;12.00;;
39890;SDS011;25564;53.312;9.790;2022-08-16T00:22:25;16.27;;;11.98;;
39890;SDS011;25564;53.312;9.790;2022-08-16T00:24:58;18.58;;;11.88;;
39890;SDS011;25564;53.312;9.790;2022-08-16T00:27:29;18.13;;;11.95;;
39890;SDS011;25564;53.312;9.790;2022-08-16T00:30:01;18.60;;;11.93;;
39890;SDS011;25564;53.312;9.790;2022-08-16T00:32:50;20.80;;;11.95;;
39890;SDS011;25564;53.312;9.790;2022-08-16T00:35:31;18.10;;;13.35;;
39890;SDS011;25564;53.312;9.790;2022-08-16T00:38:05;14.65;;;10.38;;
39890;SDS011;25564;53.312;9.790;2022-08-16T00:40:57;16.75;;;11.65;;
39890;SDS011;25564;53.312;9.790;2022-08-16T00:43:34;18.17;;;11.73;;
39890;SDS011;25564;53.312;9.790;2022-08-16T00:46:30;15.90;;;11.02;;
39890;SDS011;25564;53.312;9.790;2022-08-16T00:49:07;19.42;;;11.95;;
39890;SDS011;25564;53.312;9.790;2022-08-16T00:51:49;18.58;;;11.80;;
39890;SDS011;25564;53.312;9.790;2022-08-16T00:54:26;21.48;;;13.35;;
39890;SDS011;25564;53.312;9.790;2022-08-16T00:56:59;14.15;;;10.25;;
39890;SDS011;25564;53.312;9.790;2022-08-16T00:59:35;16.50;;;11.73;;
39890;SDS011;25564;53.312;9.790;2022-08-16T01:02:25;19.15;;;13.05;;
39890;SDS011;25564;53.312;9.790;2022-08-16T01:05:02;17.92;;;12.07;;
39890;SDS011;25564;53.312;9.790;2022-08-16T01:07:42;16.92;;;11.85;;
39890;SDS011;25564;53.312;9.790;2022-08-16T01:10:24;18.00;;;12.38;;
39890;SDS011;25564;53.312;9.790;2022-08-16T01:13:04;19.10;;;12.10;;
39890;SDS011;25564;53.312;9.790;2022-08-16T01:15:43;20.35;;;13.32;;
39890;SDS011;25564;53.312;9.790;2022-08-16T01:18:24;17.25;;;12.10;;
39890;SDS011;25564;53.312;9.790;2022-08-16T01:21:16;18.02;;;12.93;;
39890;SDS011;25564;53.312;9.790;2022-08-16T01:27:24;19.38;;;12.88;;
39890;SDS011;25564;53.312;9.790;2022-08-16T01:30:02;18.23;;;12.10;;
39890;SDS011;25564;53.312;9.790;2022-08-16T01:32:34;18.48;;;12.50;;
39890;SDS011;25564;53.312;9.790;2022-08-16T01:35:17;19.23;;;11.38;;
39890;SDS011;25564;53.312;9.790;2022-08-16T01:37:53;18.33;;;12.80;;
39890;SDS011;25564;53.312;9.790;2022-08-16T01:40:28;20.52;;;14.15;;
39890;SDS011;25564;53.312;9.790;2022-08-16T01:43:00;18.40;;;13.10;;
39890;SDS011;25564;53.312;9.790;2022-08-16T01:45:36;24.48;;;12.98;;
39890;SDS011;25564;53.312;9.790;2022-08-16T01:48:11;20.20;;;12.63;;
39890;SDS011;25564;53.312;9.790;2022-08-16T01:50:50;18.42;;;13.25;;
39890;SDS011;25564;53.312;9.790;2022-08-16T01:53:42;20.98;;;14.45;;
39890;SDS011;25564;53.312;9.790;2022-08-16T01:56:14;22.35;;;14.40;;
39890;SDS011;25564;53.312;9.790;2022-08-16T01:58:56;17.23;;;11.93;;
39890;SDS011;25564;53.312;9.790;2022-08-16T02:01:30;19.75;;;13.25;;
39890;SDS011;25564;53.312;9.790;2022-08-16T02:04:03;20.92;;;13.63;;
39890;SDS011;25564;53.312;9.790;2022-08-16T02:06:41;20.08;;;11.48;;
39890;SDS011;25564;53.312;9.790;2022-08-16T02:09:18;24.55;;;14.43;;
39890;SDS011;25564;53.312;9.790;2022-08-16T02:11:53;23.02;;;14.80;;
39890;SDS011;25564;53.312;9.790;2022-08-16T02:14:28;17.80;;;12.20;;
39890;SDS011;25564;53.312;9.790;2022-08-16T02:17:02;18.88;;;13.02;;
39890;SDS011;25564;53.312;9.790;2022-08-16T02:19:37;25.00;;;13.55;;
39890;SDS011;25564;53.312;9.790;2022-08-16T02:22:30;30.83;;;15.30;;
39890;SDS011;25564;53.312;9.790;2022-08-16T02:25:08;26.27;;;13.70;;
39890;SDS011;25564;53.312;9.790;2022-08-16T02:27:45;23.15;;;14.43;;
39890;SDS011;25564;53.312;9.790;2022-08-16T02:30:22;20.15;;;14.18;;
39890;SDS011;25564;53.312;9.790;2022-08-16T02:33:14;18.00;;;12.52;;
39890;SDS011;25564;53.312;9.790;2022-08-16T02:35:45;19.58;;;13.63;;
39890;SDS011;25564;53.312;9.790;2022-08-16T02:38:26;21.05;;;13.93;;
39890;SDS011;25564;53.312;9.790;2022-08-16T02:41:01;21.63;;;14.02;;
39890;SDS011;25564;53.312;9.790;2022-08-16T02:43:40;21.33;;;14.25;;
39890;SDS011;25564;53.312;9.790;2022-08-16T02:46:11;22.25;;;14.50;;
39890;SDS011;25564;53.312;9.790;2022-08-16T02:48:45;22.60;;;14.38;;
39890;SDS011;25564;53.312;9.790;2022-08-16T02:51:19;22.08;;;14.23;;
39890;SDS011;25564;53.312;9.790;2022-08-16T02:53:53;22.08;;;13.48;;
39890;SDS011;25564;53.312;9.790;2022-08-16T02:56:26;22.50;;;15.05;;
39890;SDS011;25564;53.312;9.790;2022-08-16T02:59:02;21.60;;;14.13;;
39890;SDS011;25564;53.312;9.790;2022-08-16T03:01:42;25.17;;;15.25;;
39890;SDS011;25564;53.312;9.790;2022-08-16T03:04:14;21.52;;;13.68;;
39890;SDS011;25564;53.312;9.790;2022-08-16T03:07:06;20.13;;;14.20;;
39890;SDS011;25564;53.312;9.790;2022-08-16T03:09:39;22.45;;;15.15;;
39890;SDS011;25564;53.312;9.790;2022-08-16T03:12:14;23.33;;;15.00;;
39890;SDS011;25564;53.312;9.790;2022-08-16T03:14:48;19.90;;;14.73;;
39890;SDS011;25564;53.312;9.790;2022-08-16T03:17:19;23.05;;;15.23;;
39890;SDS011;25564;53.312;9.790;2022-08-16T03:19:52;22.05;;;14.70;;
39890;SDS011;25564;53.312;9.790;2022-08-16T03:22:32;24.67;;;16.35;;
39890;SDS011;25564;53.312;9.790;2022-08-16T03:25:05;24.48;;;15.88;;
39890;SDS011;25564;53.312;9.790;2022-08-16T03:27:40;25.10;;;15.95;;
39890;SDS011;25564;53.312;9.790;2022-08-16T03:30:15;22.95;;;14.48;;
39890;SDS011;25564;53.312;9.790;2022-08-16T03:32:50;22.42;;;15.18;;
39890;SDS011;25564;53.312;9.790;2022-08-16T03:35:24;19.48;;;13.88;;
39890;SDS011;25564;53.312;9.790;2022-08-16T03:38:04;21.05;;;13.40;;
39890;SDS011;25564;53.312;9.790;2022-08-16T03:40:57;26.52;;;16.48;;
39890;SDS011;25564;53.312;9.790;2022-08-16T03:43:29;30.60;;;17.90;;
39890;SDS011;25564;53.312;9.790;2022-08-16T03:46:21;28.02;;;16.25;;
39890;SDS011;25564;53.312;9.790;2022-08-16T03:49:13;25.67;;;17.02;;
39890;SDS011;25564;53.312;9.790;2022-08-16T03:51:45;27.20;;;16.40;;
39890;SDS011;25564;53.312;9.790;2022-08-16T03:54:16;26.45;;;16.33;;
39890;SDS011;25564;53.312;9.790;2022-08-16T03:56:50;28.00;;;15.88;;
39890;SDS011;25564;53.312;9.790;2022-08-16T03:59:28;29.52;;;17.10;;
39890;SDS011;25564;53.312;9.790;2022-08-16T04:02:01;23.95;;;16.27;;
39890;SDS011;25564;53.312;9.790;2022-08-16T04:04:42;31.45;;;17.85;;
39890;SDS011;25564;53.312;9.790;2022-08-16T04:07:14;28.20;;;16.52;;
39890;SDS011;25564;53.312;9.790;2022-08-16T04:09:45;29.65;;;18.63;;
39890;SDS011;25564;53.312;9.790;2022-08-16T04:12:17;33.42;;;18.27;;
39890;SDS011;25564;53.312;9.790;2022-08-16T04:15:09;30.92;;;18.45;;
39890;SDS011;25564;53.312;9.790;2022-08-16T04:17:47;26.17;;;17.08;;
39890;SDS011;25564;53.312;9.790;2022-08-16T04:20:18;30.52;;;17.35;;
39890;SDS011;25564;53.312;9.790;2022-08-16T04:23:04;34.05;;;18.85;;
39890;SDS011;25564;53.312;9.790;2022-08-16T04:25:38;28.90;;;17.52;;
39890;SDS011;25564;53.312;9.790;2022-08-16T04:28:11;31.10;;;19.23;;
39890;SDS011;25564;53.312;9.790;2022-08-16T04:31:03;31.42;;;18.33;;
39890;SDS011;25564;53.312;9.790;2022-08-16T04:33:37;31.60;;;17.13;;
39890;SDS011;25564;53.312;9.790;2022-08-16T04:36:21;33.35;;;19.27;;
39890;SDS011;25564;53.312;9.790;2022-08-16T04:38:53;33.58;;;19.77;;
39890;SDS011;25564;53.312;9.790;2022-08-16T04:41:25;33.50;;;18.77;;
39890;SDS011;25564;53.312;9.790;2022-08-16T04:44:03;31.45;;;18.83;;
39890;SDS011;25564;53.312;9.790;2022-08-16T04:46:55;35.22;;;19.70;;
39890;SDS011;25564;53.312;9.790;2022-08-16T04:49:46;30.27;;;18.27;;
39890;SDS011;25564;53.312;9.790;2022-08-16T04:52:18;33.20;;;18.83;;
39890;SDS011;25564;53.312;9.790;2022-08-16T04:55:07;32.95;;;19.48;;
39890;SDS011;25564;53.312;9.790;2022-08-16T04:57:42;34.22;;;19.23;;
39890;SDS011;25564;53.312;9.790;2022-08-16T05:00:16;36.53;;;21.05;;
39890;SDS011;25564;53.312;9.790;2022-08-16T05:03:05;37.92;;;20.73;;
39890;SDS011;25564;53.312;9.790;2022-08-16T05:05:42;42.03;;;20.98;;
39890;SDS011;25564;53.312;9.790;2022-08-16T05:08:29;38.65;;;20.08;;
39890;SDS011;25564;53.312;9.790;2022-08-16T05:11:02;34.63;;;19.48;;
39890;SDS011;25564;53.312;9.790;2022-08-16T05:13:40;36.33;;;20.95;;
39890;SDS011;25564;53.312;9.790;2022-08-16T05:16:15;39.30;;;22.08;;
39890;SDS011;25564;53.312;9.790;2022-08-16T05:18:57;39.22;;;21.45;;
39890;SDS011;25564;53.312;9.790;2022-08-16T05:21:30;32.47;;;18.75;;
39890;SDS011;25564;53.312;9.790;2022-08-16T05:24:08;35.80;;;20.52;;
39890;SDS011;25564;53.312;9.790;2022-08-16T05:26:41;36.80;;;20.88;;
39890;SDS011;25564;53.312;9.790;2022-08-16T05:29:21;38.97;;;21.75;;
39890;SDS011;25564;53.312;9.790;2022-08-16T05:31:55;31.80;;;20.50;;
39890;SDS011;25564;53.312;9.790;2022-08-16T05:34:26;35.70;;;20.33;;
39890;SDS011;25564;53.312;9.790;2022-08-16T05:36:58;28.35;;;18.40;;
39890;SDS011;25564;53.312;9.790;2022-08-16T05:39:30;26.83;;;17.20;;
39890;SDS011;25564;53.312;9.790;2022-08-16T05:42:07;28.38;;;19.13;;
39890;SDS011;25564;53.312;9.790;2022-08-16T05:44:39;35.47;;;19.58;;
39890;SDS011;25564;53.312;9.790;2022-08-16T05:47:12;33.60;;;19.67;;
39890;SDS011;25564;53.312;9.790;2022-08-16T05:49:45;32.95;;;20.40;;
39890;SDS011;25564;53.312;9.790;2022-08-16T05:52:21;33.45;;;19.73;;
39890;SDS011;25564;53.312;9.790;2022-08-16T05:54:57;28.90;;;19.10;;
39890;SDS011;25564;53.312;9.790;2022-08-16T05:57:31;30.48;;;19.40;;
39890;SDS011;25564;53.312;9.790;2022-08-16T06:00:06;30.17;;;19.45;;
39890;SDS011;25564;53.312;9.790;2022-08-16T06:02:40;29.13;;;18.80;;
39890;SDS011;25564;53.312;9.790;2022-08-16T06:05:12;32.25;;;19.95;;
39890;SDS011;25564;53.312;9.790;2022-08-16T06:07:45;32.22;;;20.48;;
39890;SDS011;25564;53.312;9.790;2022-08-16T06:10:29;28.00;;;19.17;;
39890;SDS011;25564;53.312;9.790;2022-08-16T06:13:03;30.27;;;18.38;;
39890;SDS011;25564;53.312;9.790;2022-08-16T06:15:34;29.15;;;18.83;;
39890;SDS011;25564;53.312;9.790;2022-08-16T06:18:06;28.40;;;19.40;;
39890;SDS011;25564;53.312;9.790;2022-08-16T06:20:37;27.10;;;17.92;;
39890;SDS011;25564;53.312;9.790;2022-08-16T06:23:26;25.08;;;16.77;;
39890;SDS011;25564;53.312;9.790;2022-08-16T06:26:02;24.02;;;16.48;;
39890;SDS011;25564;53.312;9.790;2022-08-16T06:28:38;23.00;;;16.13;;
39890;SDS011;25564;53.312;9.790;2022-08-16T06:31:11;24.70;;;15.73;;
39890;SDS011;25564;53.312;9.790;2022-08-16T06:33:44;24.80;;;15.95;;
39890;SDS011;25564;53.312;9.790;2022-08-16T06:36:15;23.75;;;15.95;;
39890;SDS011;25564;53.312;9.790;2022-08-16T06:38:51;23.67;;;15.05;;
39890;SDS011;25564;53.312;9.790;2022-08-16T06:41:26;23.98;;;15.40;;
39890;SDS011;25564;53.312;9.790;2022-08-16T06:44:09;19.48;;;14.48;;
39890;SDS011;25564;53.312;9.790;2022-08-16T06:46:51;21.65;;;15.13;;
39890;SDS011;25564;53.312;9.790;2022-08-16T06:49:23;24.08;;;15.75;;
39890;SDS011;25564;53.312;9.790;2022-08-16T06:51:54;21.00;;;14.73;;
39890;SDS011;25564;53.312;9.790;2022-08-16T06:54:34;19.15;;;15.35;;
39890;SDS011;25564;53.312;9.790;2022-08-16T06:57:05;22.05;;;15.70;;
39890;SDS011;25564;53.312;9.790;2022-08-16T06:59:46;18.85;;;14.18;;
39890;SDS011;25564;53.312;9.790;2022-08-16T07:02:28;18.35;;;14.27;;
39890;SDS011;25564;53.312;9.790;2022-08-16T07:05:04;20.77;;;13.77;;
39890;SDS011;25564;53.312;9.790;2022-08-16T07:07:46;19.52;;;14.43;;
39890;SDS011;25564;53.312;9.790;2022-08-16T07:10:21;21.58;;;15.18;;
39890;SDS011;25564;53.312;9.790;2022-08-16T07:12:56;17.50;;;13.30;;
39890;SDS011;25564;53.312;9.790;2022-08-16T07:15:41;19.63;;;13.88;;
39890;SDS011;25564;53.312;9.790;2022-08-16T07:18:21;16.77;;;12.70;;
39890;SDS011;25564;53.312;9.790;2022-08-16T07:20:54;20.77;;;13.82;;
39890;SDS011;25564;53.312;9.790;2022-08-16T07:23:32;16.75;;;12.65;;
39890;SDS011;25564;53.312;9.790;2022-08-16T07:26:10;23.90;;;13.35;;
39890;SDS011;25564;53.312;9.790;2022-08-16T07:28:55;16.08;;;12.38;;
39890;SDS011;25564;53.312;9.790;2022-08-16T07:31:27;16.13;;;13.00;;
39890;SDS011;25564;53.312;9.790;2022-08-16T07:34:08;20.30;;;13.18;;
39890;SDS011;25564;53.312;9.790;2022-08-16T07:36:40;19.08;;;14.32;;
39890;SDS011;25564;53.312;9.790;2022-08-16T07:39:15;17.35;;;12.45;;
39890;SDS011;25564;53.312;9.790;2022-08-16T07:41:46;15.60;;;12.75;;
39890;SDS011;25564;53.312;9.790;2022-08-16T07:44:18;18.55;;;13.35;;
39890;SDS011;25564;53.312;9.790;2022-08-16T07:46:49;16.90;;;12.20;;
39890;SDS011;25564;53.312;9.790;2022-08-16T07:49:26;16.20;;;13.05;;
39890;SDS011;25564;53.312;9.790;2022-08-16T07:52:02;14.90;;;11.82;;
39890;SDS011;25564;53.312;9.790;2022-08-16T07:54:50;16.65;;;11.38;;
39890;SDS011;25564;53.312;9.790;2022-08-16T07:57:23;18.33;;;13.02;;
39890;SDS011;25564;53.312;9.790;2022-08-16T07:59:56;20.50;;;12.98;;
39890;SDS011;25564;53.312;9.790;2022-08-16T08:02:28;15.30;;;12.73;;
39890;SDS011;25564;53.312;9.790;2022-08-16T08:05:01;16.52;;;12.05;;
39890;SDS011;25564;53.312;9.790;2022-08-16T08:07:33;16.20;;;12.02;;
39890;SDS011;25564;53.312;9.790;2022-08-16T08:10:07;20.52;;;12.07;;
39890;SDS011;25564;53.312;9.790;2022-08-16T08:12:42;14.75;;;12.15;;
39890;SDS011;25564;53.312;9.790;2022-08-16T08:15:15;14.25;;;10.90;;
39890;SDS011;25564;53.312;9.790;2022-08-16T08:17:56;18.48;;;11.18;;
39890;SDS011;25564;53.312;9.790;2022-08-16T08:20:47;15.15;;;10.63;;
39890;SDS011;25564;53.312;9.790;2022-08-16T08:23:29;15.23;;;10.50;;
39890;SDS011;25564;53.312;9.790;2022-08-16T08:26:01;16.80;;;9.75;;
39890;SDS011;25564;53.312;9.790;2022-08-16T08:28:38;14.00;;;9.43;;
39890;SDS011;25564;53.312;9.790;2022-08-16T08:31:12;13.52;;;9.40;;
39890;SDS011;25564;53.312;9.790;2022-08-16T08:33:47;13.20;;;9.75;;
39890;SDS011;25564;53.312;9.790;2022-08-16T08:36:26;11.25;;;9.30;;
39890;SDS011;25564;53.312;9.790;2022-08-16T08:39:04;13.05;;;9.18;;
39890;SDS011;25564;53.312;9.790;2022-08-16T08:41:43;13.25;;;8.73;;
39890;SDS011;25564;53.312;9.790;2022-08-16T08:44:19;12.38;;;8.60;;
39890;SDS011;25564;53.312;9.790;2022-08-16T08:47:00;11.65;;;7.70;;
39890;SDS011;25564;53.312;9.790;2022-08-16T08:49:41;10.50;;;7.80;;
39890;SDS011;25564;53.312;9.790;2022-08-16T08:52:20;9.20;;;7.70;;
39890;SDS011;25564;53.312;9.790;2022-08-16T08:55:07;12.85;;;6.68;;
39890;SDS011;25564;53.312;9.790;2022-08-16T08:57:46;8.85;;;6.63;;
39890;SDS011;25564;53.312;9.790;2022-08-16T09:00:18;14.35;;;7.82;;
39890;SDS011;25564;53.312;9.790;2022-08-16T09:02:57;10.75;;;6.43;;
39890;SDS011;25564;53.312;9.790;2022-08-16T09:05:28;9.73;;;6.90;;
39890;SDS011;25564;53.312;9.790;2022-08-16T09:08:06;7.60;;;5.93;;
39890;SDS011;25564;53.312;9.790;2022-08-16T09:10:39;8.68;;;6.03;;
39890;SDS011;25564;53.312;9.790;2022-08-16T09:13:11;9.70;;;6.00;;
39890;SDS011;25564;53.312;9.790;2022-08-16T09:15:43;9.85;;;6.45;;
39890;SDS011;25564;53.312;9.790;2022-08-16T09:18:14;7.93;;;5.60;;
39890;SDS011;25564;53.312;9.790;2022-08-16T09:20:55;7.40;;;5.95;;
39890;SDS011;25564;53.312;9.790;2022-08-16T09:23:31;9.70;;;5.57;;
39890;SDS011;25564;53.312;9.790;2022-08-16T09:26:08;6.28;;;5.30;;
39890;SDS011;25564;53.312;9.790;2022-08-16T09:29:01;9.68;;;5.63;;
39890;SDS011;25564;53.312;9.790;2022-08-16T09:31:47;7.72;;;5.60;;
39890;SDS011;25564;53.312;9.790;2022-08-16T09:34:23;11.77;;;6.38;;
39890;SDS011;25564;53.312;9.790;2022-08-16T09:36:56;8.10;;;5.32;;
39890;SDS011;25564;53.312;9.790;2022-08-16T09:39:30;8.95;;;5.68;;
39890;SDS011;25564;53.312;9.790;2022-08-16T09:42:12;8.13;;;5.65;;
39890;SDS011;25564;53.312;9.790;2022-08-16T09:44:49;10.15;;;6.55;;
39890;SDS011;25564;53.312;9.790;2022-08-16T09:47:41;9.60;;;6.20;;
39890;SDS011;25564;53.312;9.790;2022-08-16T09:50:27;9.05;;;5.80;;
39890;SDS011;25564;53.312;9.790;2022-08-16T09:53:11;9.30;;;5.22;;
39890;SDS011;25564;53.312;9.790;2022-08-16T09:55:53;9.65;;;5.80;;
39890;SDS011;25564;53.312;9.790;2022-08-16T09:58:27;7.22;;;5.43;;
39890;SDS011;25564;53.312;9.790;2022-08-16T10:01:12;8.82;;;5.47;;
39890;SDS011;25564;53.312;9.790;2022-08-16T10:03:43;8.27;;;6.40;;
39890;SDS011;25564;53.312;9.790;2022-08-16T10:06:33;7.40;;;5.68;;
39890;SDS011;25564;53.312;9.790;2022-08-16T10:09:06;7.75;;;5.88;;
39890;SDS011;25564;53.312;9.790;2022-08-16T10:11:41;8.23;;;5.65;;
39890;SDS011;25564;53.312;9.790;2022-08-16T10:14:41;8.15;;;5.25;;
39890;SDS011;25564;53.312;9.790;2022-08-16T10:17:16;9.20;;;5.20;;
39890;SDS011;25564;53.312;9.790;2022-08-16T10:19:48;9.85;;;5.30;;
39890;SDS011;25564;53.312;9.790;2022-08-16T10:22:21;7.20;;;5.20;;
39890;SDS011;25564;53.312;9.790;2022-08-16T10:24:53;9.60;;;5.47;;
39890;SDS011;25564;53.312;9.790;2022-08-16T10:27:30;9.20;;;5.95;;
39890;SDS011;25564;53.312;9.790;2022-08-16T10:30:21;9.32;;;4.85;;
39890;SDS011;25564;53.312;9.790;2022-08-16T10:32:58;9.60;;;5.50;;
39890;SDS011;25564;53.312;9.790;2022-08-16T10:35:30;7.20;;;5.32;;
39890;SDS011;25564;53.312;9.790;2022-08-16T10:38:03;9.32;;;5.00;;
39890;SDS011;25564;53.312;9.790;2022-08-16T10:40:39;8.23;;;4.72;;
39890;SDS011;25564;53.312;9.790;2022-08-16T10:43:15;8.45;;;5.30;;
39890;SDS011;25564;53.312;9.790;2022-08-16T10:45:48;9.10;;;5.20;;
39890;SDS011;25564;53.312;9.790;2022-08-16T10:48:31;7.00;;;4.85;;
39890;SDS011;25564;53.312;9.790;2022-08-16T10:51:03;7.03;;;4.45;;
39890;SDS011;25564;53.312;9.790;2022-08-16T10:53:36;7.03;;;4.25;;
39890;SDS011;25564;53.312;9.790;2022-08-16T10:56:10;7.23;;;4.77;;
39890;SDS011;25564;53.312;9.790;2022-08-16T10:59:02;5.07;;;4.43;;
39890;SDS011;25564;53.312;9.790;2022-08-16T11:01:54;5.18;;;4.68;;
39890;SDS011;25564;53.312;9.790;2022-08-16T11:04:45;9.27;;;5.68;;
39890;SDS011;25564;53.312;9.790;2022-08-16T11:07:37;6.43;;;4.82;;
39890;SDS011;25564;53.312;9.790;2022-08-16T11:10:23;10.35;;;5.57;;
39890;SDS011;25564;53.312;9.790;2022-08-16T11:13:18;7.60;;;6.07;;
39890;SDS011;25564;53.312;9.790;2022-08-16T11:16:11;9.55;;;5.07;;
39890;SDS011;25564;53.312;9.790;2022-08-16T11:19:03;7.18;;;5.45;;
39890;SDS011;25564;53.312;9.790;2022-08-16T11:21:43;7.95;;;6.13;;
39890;SDS011;25564;53.312;9.790;2022-08-16T11:24:35;11.63;;;6.35;;
39890;SDS011;25564;53.312;9.790;2022-08-16T11:27:18;9.90;;;6.25;;
39890;SDS011;25564;53.312;9.790;2022-08-16T11:30:03;7.05;;;4.78;;
39890;SDS011;25564;53.312;9.790;2022-08-16T11:32:42;6.32;;;4.60;;
39890;SDS011;25564;53.312;9.790;2022-08-16T11:35:18;5.55;;;4.07;;
39890;SDS011;25564;53.312;9.790;2022-08-16T11:38:14;4.80;;;3.58;;
39890;SDS011;25564;53.312;9.790;2022-08-16T11:41:07;3.60;;;3.30;;
39890;SDS011;25564;53.312;9.790;2022-08-16T11:43:40;4.03;;;3.22;;
39890;SDS011;25564;53.312;9.790;2022-08-16T11:46:14;4.17;;;3.13;;
39890;SDS011;25564;53.312;9.790;2022-08-16T11:49:07;4.07;;;3.20;;
39890;SDS011;25564;53.312;9.790;2022-08-16T11:51:43;4.97;;;3.38;;
39890;SDS011;25564;53.312;9.790;2022-08-16T11:54:15;4.53;;;3.85;;
39890;SDS011;25564;53.312;9.790;2022-08-16T11:56:52;5.57;;;3.22;;
39890;SDS011;25564;53.312;9.790;2022-08-16T11:59:27;4.22;;;3.45;;
39890;SDS011;25564;53.312;9.790;2022-08-16T12:01:59;4.50;;;3.30;;
39890;SDS011;25564;53.312;9.790;2022-08-16T12:04:50;5.65;;;3.47;;
39890;SDS011;25564;53.312;9.790;2022-08-16T12:07:23;6.72;;;4.65;;
39890;SDS011;25564;53.312;9.790;2022-08-16T12:09:55;5.93;;;4.88;;
39890;SDS011;25564;53.312;9.790;2022-08-16T12:12:26;8.75;;;5.40;;
39890;SDS011;25564;53.312;9.790;2022-08-16T12:14:58;6.13;;;3.95;;
39890;SDS011;25564;53.312;9.790;2022-08-16T12:17:31;5.38;;;4.20;;
39890;SDS011;25564;53.312;9.790;2022-08-16T12:20:04;5.82;;;4.55;;
39890;SDS011;25564;53.312;9.790;2022-08-16T12:22:48;9.02;;;4.93;;
39890;SDS011;25564;53.312;9.790;2022-08-16T12:25:23;7.72;;;4.68;;
39890;SDS011;25564;53.312;9.790;2022-08-16T12:27:58;7.97;;;4.30;;
39890;SDS011;25564;53.312;9.790;2022-08-16T12:30:34;7.22;;;4.55;;
39890;SDS011;25564;53.312;9.790;2022-08-16T12:33:10;6.07;;;4.90;;
39890;SDS011;25564;53.312;9.790;2022-08-16T12:35:55;7.10;;;4.38;;
39890;SDS011;25564;53.312;9.790;2022-08-16T12:38:26;6.78;;;3.97;;
39890;SDS011;25564;53.312;9.790;2022-08-16T12:41:16;5.35;;;4.30;;
39890;SDS011;25564;53.312;9.790;2022-08-16T12:43:54;6.90;;;3.97;;
39890;SDS011;25564;53.312;9.790;2022-08-16T12:46:32;7.25;;;4.22;;
39890;SDS011;25564;53.312;9.790;2022-08-16T12:49:04;10.63;;;5.30;;
39890;SDS011;25564;53.312;9.790;2022-08-16T12:51:38;6.07;;;4.05;;
39890;SDS011;25564;53.312;9.790;2022-08-16T12:54:30;7.18;;;4.10;;
39890;SDS011;25564;53.312;9.790;2022-08-16T12:57:05;9.00;;;4.57;;
39890;SDS011;25564;53.312;9.790;2022-08-16T12:59:44;7.05;;;3.97;;
39890;SDS011;25564;53.312;9.790;2022-08-16T13:02:15;4.85;;;3.78;;
39890;SDS011;25564;53.312;9.790;2022-08-16T13:05:03;10.63;;;3.88;;
39890;SDS011;25564;53.312;9.790;2022-08-16T13:07:38;6.35;;;3.60;;
39890;SDS011;25564;53.312;9.790;2022-08-16T13:10:21;7.85;;;3.95;;
39890;SDS011;25564;53.312;9.790;2022-08-16T13:13:08;8.63;;;3.60;;
39890;SDS011;25564;53.312;9.790;2022-08-16T13:15:40;6.53;;;3.65;;
39890;SDS011;25564;53.312;9.790;2022-08-16T13:18:30;6.13;;;4.05;;
39890;SDS011;25564;53.312;9.790;2022-08-16T13:21:06;8.73;;;4.63;;
39890;SDS011;25564;53.312;9.790;2022-08-16T13:23:40;7.32;;;3.80;;
39890;SDS011;25564;53.312;9.790;2022-08-16T13:26:14;5.13;;;3.97;;
39890;SDS011;25564;53.312;9.790;2022-08-16T13:28:47;7.68;;;3.50;;
39890;SDS011;25564;53.312;9.790;2022-08-16T13:31:19;4.70;;;4.13;;
39890;SDS011;25564;53.312;9.790;2022-08-16T13:33:50;10.13;;;3.85;;
39890;SDS011;25564;53.312;9.790;2022-08-16T13:36:24;3.90;;;3.47;;
39890;SDS011;25564;53.312;9.790;2022-08-16T13:39:16;7.35;;;3.70;;
39890;SDS011;25564;53.312;9.790;2022-08-16T13:41:47;5.32;;;3.75;;
39890;SDS011;25564;53.312;9.790;2022-08-16T13:44:24;7.22;;;4.47;;
39890;SDS011;25564;53.312;9.790;2022-08-16T13:47:16;7.93;;;3.95;;
39890;SDS011;25564;53.312;9.790;2022-08-16T13:49:47;7.22;;;4.00;;
39890;SDS011;25564;53.312;9.790;2022-08-16T13:52:18;5.88;;;4.38;;
39890;SDS011;25564;53.312;9.790;2022-08-16T13:54:50;6.70;;;4.32;;
39890;SDS011;25564;53.312;9.790;2022-08-16T13:57:21;8.20;;;4.18;;
39890;SDS011;25564;53.312;9.790;2022-08-16T14:00:13;6.00;;;4.13;;
39890;SDS011;25564;53.312;9.790;2022-08-16T14:02:51;5.63;;;3.95;;
39890;SDS011;25564;53.312;9.790;2022-08-16T14:05:29;5.82;;;4.30;;
39890;SDS011;25564;53.312;9.790;2022-08-16T14:08:00;6.78;;;4.40;;
39890;SDS011;25564;53.312;9.790;2022-08-16T14:10:33;6.85;;;3.97;;
39890;SDS011;25564;53.312;9.790;2022-08-16T14:13:05;8.85;;;4.85;;
39890;SDS011;25564;53.312;9.790;2022-08-16T14:15:43;13.38;;;5.57;;
39890;SDS011;25564;53.312;9.790;2022-08-16T14:18:15;11.02;;;6.82;;
39890;SDS011;25564;53.312;9.790;2022-08-16T14:20:50;9.18;;;5.93;;
39890;SDS011;25564;53.312;9.790;2022-08-16T14:23:22;8.82;;;6.47;;
39890;SDS011;25564;53.312;9.790;2022-08-16T14:25:54;8.23;;;5.88;;
39890;SDS011;25564;53.312;9.790;2022-08-16T14:28:27;9.95;;;6.05;;
39890;SDS011;25564;53.312;9.790;2022-08-16T14:30:58;10.98;;;6.68;;
39890;SDS011;25564;53.312;9.790;2022-08-16T14:33:30;6.78;;;5.93;;
39890;SDS011;25564;53.312;9.790;2022-08-16T14:36:03;12.68;;;5.43;;
39890;SDS011;25564;53.312;9.790;2022-08-16T14:38:35;7.50;;;5.65;;
39890;SDS011;25564;53.312;9.790;2022-08-16T14:41:09;9.82;;;6.57;;
39890;SDS011;25564;53.312;9.790;2022-08-16T14:43:41;8.10;;;5.90;;
39890;SDS011;25564;53.312;9.790;2022-08-16T14:46:12;7.82;;;5.82;;
39890;SDS011;25564;53.312;9.790;2022-08-16T14:48:45;7.63;;;5.93;;
39890;SDS011;25564;53.312;9.790;2022-08-16T14:51:16;6.65;;;5.30;;
39890;SDS011;25564;53.312;9.790;2022-08-16T14:53:48;6.05;;;4.93;;
39890;SDS011;25564;53.312;9.790;2022-08-16T14:56:23;8.73;;;5.47;;
39890;SDS011;25564;53.312;9.790;2022-08-16T14:59:13;9.30;;;4.50;;
39890;SDS011;25564;53.312;9.790;2022-08-16T15:01:44;7.10;;;4.95;;
39890;SDS011;25564;53.312;9.790;2022-08-16T15:04:31;8.90;;;5.68;;
39890;SDS011;25564;53.312;9.790;2022-08-16T15:07:19;7.70;;;5.88;;
39890;SDS011;25564;53.312;9.790;2022-08-16T15:09:53;6.18;;;5.30;;
39890;SDS011;25564;53.312;9.790;2022-08-16T15:12:32;9.48;;;4.88;;
39890;SDS011;25564;53.312;9.790;2022-08-16T15:15:08;5.97;;;4.95;;
39890;SDS011;25564;53.312;9.790;2022-08-16T15:17:46;6.85;;;4.88;;
39890;SDS011;25564;53.312;9.790;2022-08-16T15:20:27;9.75;;;4.88;;
39890;SDS011;25564;53.312;9.790;2022-08-16T15:23:02;5.50;;;4.72;;
39890;SDS011;25564;53.312;9.790;2022-08-16T15:25:38;5.80;;;4.85;;
39890;SDS011;25564;53.312;9.790;2022-08-16T15:28:12;8.75;;;4.40;;
39890;SDS011;25564;53.312;9.790;2022-08-16T15:31:05;6.32;;;3.97;;
39890;SDS011;25564;53.312;9.790;2022-08-16T15:33:44;6.07;;;4.40;;
39890;SDS011;25564;53.312;9.790;2022-08-16T15:36:25;7.53;;;4.45;;
39890;SDS011;25564;53.312;9.790;2022-08-16T15:38:58;6.22;;;4.40;;